Time;durP1;ratioP1;P1;durP2;ratioP2;P2;SDS_P1;SDS_P2;PMS_P1;PMS_P2;Temp;Humidity;BMP_temperature;BMP_pressure;BME280_temperature;BME280_humidity;BME280_pressure;Samples;Min_cycle;Max_cycle;Signal;HPM_P1;HPM_P2
2023/04/28 00:00:22;;;;;;;1.77;1.20;;;;;;;;;;5110388;28;20069;-59
2023/04/28 00:02:49;;;;;;;2.50;1.40;;;;;;;;;;5113857;28;20065;-59
2023/04/28 00:05:16;;;;;;;2.13;1.10;;;;;;;;;;5113888;28;20180;-60
2023/04/28 00:07:42;;;;;;;1.85;1.35;;;;;;;;;;5113876;28;20028;-59
2023/04/28 00:10:09;;;;;;;2.08;1.42;;;;;;;;;;5113744;28;20099;-59
2023/04/28 00:12:36;;;;;;;2.90;1.48;;;;;;;;;;5112190;28;20099;-59
2023/04/28 00:15:03;;;;;;;14.48;1.33;;;;;;;;;;5108732;28;20023;-59
2023/04/28 00:17:30;;;;;;;1.88;1.40;;;;;;;;;;5108627;28;20035;-59
2023/04/28 00:19:57;;;;;;;1.10;1.00;;;;;;;;;;5108716;28;20386;-59
2023/04/28 00:22:24;;;;;;;1.98;1.33;;;;;;;;;;5108630;28;20020;-59
2023/04/28 00:24:51;;;;;;;4.82;1.85;;;;;;;;;;5113715;28;20030;-59
2023/04/28 00:27:18;;;;;;;1.08;0.93;;;;;;;;;;5113356;28;20470;-59
2023/04/28 00:29:44;;;;;;;1.15;0.85;;;;;;;;;;5113178;28;20073;-59
2023/04/28 00:32:12;;;;;;;3.13;1.35;;;;;;;;;;5113540;28;20020;-59
2023/04/28 00:34:39;;;;;;;2.92;1.17;;;;;;;;;;5112527;28;20489;-59
2023/04/28 00:37:06;;;;;;;2.63;1.38;;;;;;;;;;5108199;28;20100;-59
2023/04/28 00:39:32;;;;;;;17.90;1.85;;;;;;;;;;5108173;28;20043;-59
2023/04/28 00:42:00;;;;;;;16.15;1.65;;;;;;;;;;5108024;28;20024;-59
2023/04/28 00:44:27;;;;;;;9.65;2.00;;;;;;;;;;5108267;28;20031;-59
2023/04/28 00:46:54;;;;;;;1.75;1.33;;;;;;;;;;5112721;28;20087;-59
2023/04/28 00:49:21;;;;;;;2.55;1.63;;;;;;;;;;5113132;28;20051;-59
2023/04/28 00:51:47;;;;;;;2.05;1.20;;;;;;;;;;5113171;28;20023;-59
2023/04/28 00:54:14;;;;;;;4.57;1.48;;;;;;;;;;5113007;28;20492;-59
2023/04/28 00:56:41;;;;;;;3.17;1.52;;;;;;;;;;5113031;28;20538;-59
2023/04/28 00:59:08;;;;;;;2.15;1.40;;;;;;;;;;5107547;28;20028;-59
2023/04/28 01:01:35;;;;;;;9.23;1.55;;;;;;;;;;5107948;28;20024;-59
2023/04/28 01:04:02;;;;;;;2.38;1.45;;;;;;;;;;5107692;28;20565;-58
2023/04/28 01:06:31;;;;;;;2.50;1.30;;;;;;;;;;5107876;28;20047;-59
2023/04/28 01:08:58;;;;;;;5.05;1.45;;;;;;;;;;5111860;28;20042;-58
2023/04/28 01:11:25;;;;;;;8.25;1.67;;;;;;;;;;5112988;28;20076;-58
2023/04/28 01:13:52;;;;;;;3.72;1.88;;;;;;;;;;5112859;28;20016;-58
2023/04/28 01:16:19;;;;;;;3.63;1.60;;;;;;;;;;5113003;28;20107;-59
2023/04/28 01:18:47;;;;;;;2.65;1.77;;;;;;;;;;5112900;28;20019;-59
2023/04/28 01:21:14;;;;;;;4.03;1.75;;;;;;;;;;5108306;28;20394;-59
2023/04/28 01:23:40;;;;;;;2.90;1.80;;;;;;;;;;5107819;28;20023;-59
2023/04/28 01:26:07;;;;;;;3.08;1.88;;;;;;;;;;5107782;28;20012;-59
2023/04/28 01:28:34;;;;;;;10.77;1.85;;;;;;;;;;5107528;28;20093;-59
2023/04/28 01:31:01;;;;;;;2.85;1.58;;;;;;;;;;5111052;28;20031;-59
2023/04/28 01:33:28;;;;;;;4.50;2.15;;;;;;;;;;5112817;28;20050;-58
2023/04/28 01:35:57;;;;;;;3.87;1.53;;;;;;;;;;5112193;28;20505;-58
2023/04/28 01:38:24;;;;;;;2.60;1.30;;;;;;;;;;5112456;28;20116;-59
2023/04/28 01:40:51;;;;;;;2.10;1.30;;;;;;;;;;5112838;28;20560;-58
2023/04/28 01:43:18;;;;;;;2.73;1.43;;;;;;;;;;5109226;28;20024;-59
2023/04/28 01:45:44;;;;;;;3.80;1.57;;;;;;;;;;5107534;28;20425;-58
2023/04/28 01:48:11;;;;;;;4.23;2.00;;;;;;;;;;5107371;28;20019;-58
2023/04/28 01:50:38;;;;;;;1.93;1.30;;;;;;;;;;5107728;28;20519;-58
2023/04/28 01:53:05;;;;;;;4.43;1.67;;;;;;;;;;5110186;28;20480;-58
2023/04/28 01:55:31;;;;;;;4.23;1.60;;;;;;;;;;5111983;28;20481;-58
2023/04/28 01:57:58;;;;;;;13.17;1.40;;;;;;;;;;5112599;28;20024;-58
2023/04/28 02:00:26;;;;;;;7.17;1.70;;;;;;;;;;5112509;28;20036;-58
2023/04/28 02:02:52;;;;;;;1.90;1.47;;;;;;;;;;5112269;28;20062;-58
2023/04/28 02:05:19;;;;;;;3.37;1.83;;;;;;;;;;5109727;28;20027;-59
2023/04/28 02:07:46;;;;;;;7.43;2.57;;;;;;;;;;5107749;28;20066;-58
2023/04/28 02:10:13;;;;;;;3.57;1.67;;;;;;;;;;5111409;28;20020;-58
2023/04/28 02:12:41;;;;;;;4.30;1.97;;;;;;;;;;5111028;28;20062;-58
2023/04/28 02:15:08;;;;;;;7.40;1.60;;;;;;;;;;5113164;28;20051;-58
2023/04/28 02:17:35;;;;;;;1.77;1.40;;;;;;;;;;5116254;28;20036;-58
2023/04/28 02:20:02;;;;;;;2.30;1.40;;;;;;;;;;5116325;28;20019;-58
2023/04/28 02:22:29;;;;;;;2.07;1.47;;;;;;;;;;5116273;28;20530;-58
2023/04/28 02:24:55;;;;;;;4.33;1.43;;;;;;;;;;5116189;28;20031;-58
2023/04/28 02:27:22;;;;;;;7.50;1.70;;;;;;;;;;5113985;28;20039;-58
2023/04/28 02:29:49;;;;;;;25.23;1.87;;;;;;;;;;5111065;28;20027;-58
2023/04/28 02:32:16;;;;;;;1.97;1.30;;;;;;;;;;5110497;28;20032;-58
2023/04/28 02:34:42;;;;;;;10.77;1.60;;;;;;;;;;5110955;28;20019;-59
2023/04/28 02:37:09;;;;;;;2.23;1.50;;;;;;;;;;5112014;28;20023;-58
2023/04/28 02:39:36;;;;;;;4.27;1.40;;;;;;;;;;5116080;28;20024;-58
2023/04/28 02:42:04;;;;;;;2.27;1.57;;;;;;;;;;5115809;28;20355;-58
2023/04/28 02:44:31;;;;;;;2.80;1.60;;;;;;;;;;5115835;28;20024;-58
2023/04/28 02:46:57;;;;;;;3.23;1.43;;;;;;;;;;5115690;28;20462;-59
2023/04/28 02:49:24;;;;;;;3.40;1.50;;;;;;;;;;5113934;28;20058;-58
2023/04/28 02:51:51;;;;;;;3.83;1.47;;;;;;;;;;5110629;28;20352;-58
2023/04/28 02:54:26;;;;;;;1.47;0.90;;;;;;;;;;5110409;28;20028;-58
2023/04/28 02:56:53;;;;;;;2.80;1.50;;;;;;;;;;5110351;28;20027;-58
2023/04/28 02:59:20;;;;;;;2.60;1.43;;;;;;;;;;5111474;28;20525;-58
2023/04/28 03:01:47;;;;;;;2.70;1.40;;;;;;;;;;5115306;28;20062;-58
2023/04/28 03:04:14;;;;;;;2.90;1.60;;;;;;;;;;5115263;28;20024;-58
2023/04/28 03:06:41;;;;;;;5.57;1.53;;;;;;;;;;5114690;28;20024;-58
2023/04/28 03:09:09;;;;;;;6.90;1.77;;;;;;;;;;5115376;28;20039;-58
2023/04/28 03:11:36;;;;;;;3.30;1.77;;;;;;;;;;5114212;28;20073;-58
2023/04/28 03:14:03;;;;;;;3.03;1.43;;;;;;;;;;5110181;28;20378;-58
2023/04/28 03:16:29;;;;;;;1.57;1.17;;;;;;;;;;5110783;28;20034;-58
2023/04/28 03:18:56;;;;;;;3.93;2.10;;;;;;;;;;5109918;28;20581;-58
2023/04/28 03:21:25;;;;;;;4.43;1.93;;;;;;;;;;5109010;28;20019;-58
2023/04/28 03:23:52;;;;;;;2.63;1.70;;;;;;;;;;5114884;28;20020;-58
2023/04/28 03:26:18;;;;;;;3.17;1.60;;;;;;;;;;5114907;28;20458;-58
2023/04/28 03:28:46;;;;;;;3.03;1.57;;;;;;;;;;5114561;28;20027;-58
2023/04/28 03:31:13;;;;;;;5.07;1.87;;;;;;;;;;5114607;28;20019;-58
2023/04/28 03:33:40;;;;;;;2.37;1.57;;;;;;;;;;5114541;28;20366;-58
2023/04/28 03:36:07;;;;;;;3.20;1.90;;;;;;;;;;5109605;28;20028;-58
2023/04/28 03:38:33;;;;;;;5.33;1.40;;;;;;;;;;5109630;28;20027;-58
2023/04/28 03:41:00;;;;;;;2.17;1.40;;;;;;;;;;5109464;28;20020;-59
2023/04/28 03:43:27;;;;;;;3.53;1.50;;;;;;;;;;5109322;28;20466;-58
2023/04/28 03:45:54;;;;;;;1.37;1.13;;;;;;;;;;5113933;28;20052;-58
2023/04/28 03:48:21;;;;;;;6.27;2.00;;;;;;;;;;5114484;28;20027;-58
2023/04/28 03:50:47;;;;;;;2.77;1.63;;;;;;;;;;5114507;28;20049;-58
2023/04/28 03:53:14;;;;;;;2.50;1.20;;;;;;;;;;5114547;28;20030;-57
2023/04/28 03:55:41;;;;;;;2.50;1.40;;;;;;;;;;5114443;28;20095;-58
2023/04/28 03:58:07;;;;;;;5.70;2.33;;;;;;;;;;5109748;28;20016;-58
2023/04/28 04:00:34;;;;;;;9.53;1.90;;;;;;;;;;5108884;28;20061;-58
2023/04/28 04:03:01;;;;;;;3.60;1.67;;;;;;;;;;5109357;28;20028;-58
2023/04/28 04:05:28;;;;;;;3.13;1.67;;;;;;;;;;5109111;28;20024;-58
2023/04/28 04:07:55;;;;;;;2.40;1.53;;;;;;;;;;5112623;28;20119;-57
2023/04/28 04:10:21;;;;;;;2.37;1.40;;;;;;;;;;5114200;28;20378;-58
2023/04/28 04:12:48;;;;;;;3.63;2.27;;;;;;;;;;5113946;28;20027;-58
2023/04/28 04:15:15;;;;;;;4.67;1.83;;;;;;;;;;5113972;28;20024;-58
2023/04/28 04:17:42;;;;;;;3.77;1.47;;;;;;;;;;5113939;28;20100;-57
2023/04/28 04:20:08;;;;;;;13.07;1.70;;;;;;;;;;5109778;28;20023;-58
2023/04/28 04:22:35;;;;;;;1.63;1.13;;;;;;;;;;5108869;28;20028;-58
2023/04/28 04:25:02;;;;;;;1.37;0.93;;;;;;;;;;5108936;28;20032;-57
2023/04/28 04:27:29;;;;;;;1.80;1.27;;;;;;;;;;5108588;28;20028;-57
2023/04/28 04:29:55;;;;;;;5.23;2.10;;;;;;;;;;5111436;28;20020;-58
2023/04/28 04:32:22;;;;;;;9.33;1.87;;;;;;;;;;5113307;28;20023;-58
2023/04/28 04:34:49;;;;;;;6.70;1.33;;;;;;;;;;5113592;28;20370;-58
2023/04/28 04:37:16;;;;;;;2.87;1.13;;;;;;;;;;5113530;28;20046;-57
2023/04/28 04:39:43;;;;;;;1.90;1.33;;;;;;;;;;5113277;28;20059;-58
2023/04/28 04:42:09;;;;;;;4.43;1.77;;;;;;;;;;5110566;28;20023;-57
2023/04/28 04:44:36;;;;;;;2.30;1.50;;;;;;;;;;5108357;28;20031;-58
2023/04/28 04:47:06;;;;;;;2.63;1.27;;;;;;;;;;5108306;28;20028;-58
2023/04/28 04:49:33;;;;;;;2.63;1.40;;;;;;;;;;5108224;28;20426;-57
2023/04/28 04:52:00;;;;;;;4.07;2.03;;;;;;;;;;5110487;28;20043;-59
2023/04/28 04:54:27;;;;;;;5.23;2.47;;;;;;;;;;5113394;28;20030;-57
2023/04/28 04:56:53;;;;;;;3.17;2.37;;;;;;;;;;5113080;28;20409;-57
2023/04/28 04:59:20;;;;;;;3.23;1.93;;;;;;;;;;5113249;28;20016;-58
2023/04/28 05:01:47;;;;;;;5.33;2.63;;;;;;;;;;5113011;28;20470;-58
2023/04/28 05:04:14;;;;;;;1.83;1.20;;;;;;;;;;5110580;28;20019;-57
2023/04/28 05:06:40;;;;;;;2.17;1.63;;;;;;;;;;5107950;28;20106;-59
2023/04/28 05:09:07;;;;;;;3.17;2.23;;;;;;;;;;5107835;28;20023;-59
2023/04/28 05:11:34;;;;;;;5.77;3.13;;;;;;;;;;5107989;28;20116;-58
2023/04/28 05:14:01;;;;;;;5.87;3.23;;;;;;;;;;5109151;28;20019;-58
2023/04/28 05:16:28;;;;;;;8.93;2.83;;;;;;;;;;5113043;28;20023;-57
2023/04/28 05:18:55;;;;;;;15.10;2.67;;;;;;;;;;5112852;28;20422;-58
2023/04/28 05:21:21;;;;;;;4.30;2.53;;;;;;;;;;5113185;28;20047;-57
2023/04/28 05:23:48;;;;;;;1.67;1.30;;;;;;;;;;5112703;28;20470;-58
2023/04/28 05:26:15;;;;;;;4.97;2.23;;;;;;;;;;5111047;28;20433;-58
2023/04/28 05:28:42;;;;;;;6.20;2.20;;;;;;;;;;5107589;28;20067;-58
2023/04/28 05:31:09;;;;;;;9.80;2.43;;;;;;;;;;5107540;28;20390;-58
2023/04/28 05:33:36;;;;;;;4.93;1.77;;;;;;;;;;5107440;28;20035;-58
2023/04/28 05:36:03;;;;;;;3.37;1.53;;;;;;;;;;5108496;28;20024;-58
2023/04/28 05:38:30;;;;;;;1.83;1.03;;;;;;;;;;5112688;28;20028;-57
2023/04/28 05:40:57;;;;;;;2.23;1.10;;;;;;;;;;5112587;28;20084;-58
2023/04/28 05:43:24;;;;;;;3.53;1.73;;;;;;;;;;5114128;28;20419;-58
2023/04/28 05:45:51;;;;;;;2.63;1.80;;;;;;;;;;5116792;28;20108;-57
2023/04/28 05:48:18;;;;;;;4.53;2.10;;;;;;;;;;5115703;28;20031;-58
2023/04/28 05:50:44;;;;;;;2.37;1.43;;;;;;;;;;5111214;28;20034;-58
2023/04/28 05:53:11;;;;;;;2.83;1.57;;;;;;;;;;5111748;28;20363;-58
2023/04/28 05:55:38;;;;;;;3.13;1.87;;;;;;;;;;5111712;28;20530;-58
2023/04/28 05:58:05;;;;;;;2.53;1.53;;;;;;;;;;5111592;28;20024;-57
2023/04/28 06:00:35;;;;;;;2.30;1.70;;;;;;;;;;5116487;28;20031;-58
2023/04/28 06:03:02;;;;;;;5.07;1.80;;;;;;;;;;5116432;28;20024;-57
2023/04/28 06:05:28;;;;;;;1.97;1.20;;;;;;;;;;5116834;28;20112;-57
2023/04/28 06:07:55;;;;;;;1.97;1.27;;;;;;;;;;5115880;28;20028;-58
2023/04/28 06:10:22;;;;;;;4.27;2.40;;;;;;;;;;5116184;28;20100;-57
2023/04/28 06:12:49;;;;;;;2.33;1.37;;;;;;;;;;5111288;28;20429;-57
2023/04/28 06:15:16;;;;;;;2.07;1.40;;;;;;;;;;5111058;28;20016;-57
2023/04/28 06:17:42;;;;;;;2.33;1.10;;;;;;;;;;5111302;28;20026;-58
2023/04/28 06:20:12;;;;;;;1.60;1.03;;;;;;;;;;5111130;28;20023;-58
2023/04/28 06:22:39;;;;;;;3.23;1.37;;;;;;;;;;5115881;28;20104;-57
2023/04/28 06:25:06;;;;;;;1.80;1.30;;;;;;;;;;5115533;28;20024;-57
2023/04/28 06:27:33;;;;;;;4.30;1.77;;;;;;;;;;5116132;28;20031;-57
2023/04/28 06:29:59;;;;;;;2.67;1.80;;;;;;;;;;5116211;28;20028;-57
2023/04/28 06:32:26;;;;;;;2.30;1.60;;;;;;;;;;5115842;28;20437;-58
2023/04/28 06:34:53;;;;;;;12.83;1.57;;;;;;;;;;5110875;28;21971;-58
2023/04/28 06:37:20;;;;;;;3.17;1.73;;;;;;;;;;5110805;28;20478;-57
2023/04/28 06:39:46;;;;;;;3.60;2.00;;;;;;;;;;5110859;28;20049;-58
2023/04/28 06:42:17;;;;;;;2.50;1.33;;;;;;;;;;5110683;28;20077;-58
2023/04/28 06:44:44;;;;;;;2.97;1.70;;;;;;;;;;5114952;28;20047;-57
2023/04/28 06:47:11;;;;;;;2.73;1.83;;;;;;;;;;5115480;28;20024;-57
2023/04/28 06:49:42;;;;;;;3.50;1.80;;;;;;;;;;5115505;28;20023;-57
2023/04/28 06:52:09;;;;;;;3.37;2.13;;;;;;;;;;5115883;28;20055;-57
2023/04/28 06:54:37;;;;;;;2.67;1.63;;;;;;;;;;5115500;28;20028;-57
2023/04/28 06:57:04;;;;;;;6.10;1.93;;;;;;;;;;5110692;28;20490;-58
2023/04/28 06:59:31;;;;;;;3.57;2.20;;;;;;;;;;5110084;28;20019;-58
2023/04/28 07:01:58;;;;;;;1.90;1.23;;;;;;;;;;5110328;28;20505;-58
2023/04/28 07:04:24;;;;;;;2.20;1.20;;;;;;;;;;5110093;28;20024;-58
2023/04/28 07:06:51;;;;;;;3.87;1.67;;;;;;;;;;5113998;28;20035;-57
2023/04/28 07:09:18;;;;;;;5.70;1.50;;;;;;;;;;5115375;28;20027;-57
2023/04/28 07:11:45;;;;;;;2.27;1.30;;;;;;;;;;5115285;28;20420;-57
2023/04/28 07:14:12;;;;;;;3.30;1.50;;;;;;;;;;5115141;28;20016;-57
2023/04/28 07:16:39;;;;;;;3.07;1.37;;;;;;;;;;5114708;28;20024;-58
2023/04/28 07:19:06;;;;;;;2.83;1.57;;;;;;;;;;5111024;28;20056;-58
2023/04/28 07:21:33;;;;;;;2.57;1.37;;;;;;;;;;5109908;28;20039;-58
2023/04/28 07:24:00;;;;;;;4.60;2.03;;;;;;;;;;5109790;28;20046;-57
2023/04/28 07:26:27;;;;;;;10.83;1.70;;;;;;;;;;5109929;28;20488;-58
2023/04/28 07:28:53;;;;;;;1.40;1.20;;;;;;;;;;5112900;28;20030;-57
2023/04/28 07:31:20;;;;;;;1.47;1.20;;;;;;;;;;5114798;28;20104;-57
2023/04/28 07:33:47;;;;;;;3.40;1.73;;;;;;;;;;5114654;28;20106;-57
2023/04/28 07:36:15;;;;;;;1.47;1.00;;;;;;;;;;5114861;28;20024;-58
2023/04/28 07:38:42;;;;;;;4.70;2.23;;;;;;;;;;5114846;28;20043;-57
2023/04/28 07:41:08;;;;;;;1.43;1.00;;;;;;;;;;5111226;28;20080;-58
2023/04/28 07:43:35;;;;;;;3.43;2.03;;;;;;;;;;5109610;28;20023;-57
2023/04/28 07:46:02;;;;;;;1.43;1.10;;;;;;;;;;5109616;28;20028;-57
2023/04/28 07:48:29;;;;;;;3.80;1.60;;;;;;;;;;5109455;28;20032;-57
2023/04/28 07:50:56;;;;;;;2.03;1.20;;;;;;;;;;5111987;28;20417;-57
2023/04/28 07:53:22;;;;;;;3.47;1.53;;;;;;;;;;5114221;28;20016;-58
2023/04/28 07:55:49;;;;;;;1.80;1.23;;;;;;;;;;5114500;28;20027;-58
2023/04/28 07:58:16;;;;;;;2.63;1.80;;;;;;;;;;5114205;28;20412;-58
2023/04/28 08:00:43;;;;;;;3.10;1.60;;;;;;;;;;5114183;28;20062;-57
2023/04/28 08:03:10;;;;;;;2.03;1.37;;;;;;;;;;5111608;28;20123;-57
2023/04/28 08:05:38;;;;;;;1.83;1.30;;;;;;;;;;5108644;28;20398;-57
2023/04/28 08:08:05;;;;;;;4.87;1.70;;;;;;;;;;5108744;28;20080;-57
2023/04/28 08:10:32;;;;;;;2.20;1.40;;;;;;;;;;5108923;28;20031;-58
2023/04/28 08:12:59;;;;;;;2.30;1.80;;;;;;;;;;5110971;28;20016;-57
2023/04/28 08:15:26;;;;;;;2.00;1.20;;;;;;;;;;5113776;28;20382;-58
2023/04/28 08:17:53;;;;;;;4.07;1.13;;;;;;;;;;5114066;28;20425;-57
2023/04/28 08:20:20;;;;;;;2.37;1.20;;;;;;;;;;5113785;28;20028;-57
2023/04/28 08:22:47;;;;;;;1.33;1.00;;;;;;;;;;5114004;28;20027;-57
2023/04/28 08:25:13;;;;;;;2.13;1.50;;;;;;;;;;5111618;28;20024;-57
2023/04/28 08:27:40;;;;;;;2.37;1.47;;;;;;;;;;5108215;28;20035;-57
2023/04/28 08:30:08;;;;;;;2.07;1.17;;;;;;;;;;5108600;28;20091;-57
2023/04/28 08:32:35;;;;;;;1.40;1.00;;;;;;;;;;5108447;28;20031;-58
2023/04/28 08:35:02;;;;;;;4.97;1.43;;;;;;;;;;5109979;28;20096;-57
2023/04/28 08:37:29;;;;;;;5.73;2.17;;;;;;;;;;5113670;28;20031;-57
2023/04/28 08:40:08;;;;;;;1.30;1.07;;;;;;;;;;5113525;28;20512;-57
2023/04/28 08:42:35;;;;;;;2.63;1.43;;;;;;;;;;5113115;28;20375;-57
2023/04/28 08:45:03;;;;;;;1.30;0.97;;;;;;;;;;5113264;28;20024;-57
2023/04/28 08:47:44;;;;;;;6.37;1.90;;;;;;;;;;5111237;28;20386;-57
2023/04/28 08:50:12;;;;;;;3.40;1.50;;;;;;;;;;5108298;28;20073;-57
2023/04/28 08:52:40;;;;;;;1.77;1.10;;;;;;;;;;5108192;28;20031;-57
2023/04/28 08:55:11;;;;;;;1.70;1.20;;;;;;;;;;5107834;28;20023;-58
2023/04/28 08:57:39;;;;;;;1.50;1.03;;;;;;;;;;5110392;28;20392;-57
2023/04/28 09:00:06;;;;;;;1.20;0.90;;;;;;;;;;5113190;28;20159;-57
2023/04/28 09:02:33;;;;;;;4.37;2.00;;;;;;;;;;5113308;28;20466;-57
2023/04/28 09:05:00;;;;;;;1.43;1.07;;;;;;;;;;5113258;28;20038;-57
2023/04/28 09:07:27;;;;;;;3.23;1.73;;;;;;;;;;5113008;28;20024;-57
2023/04/28 09:10:13;;;;;;;3.87;1.83;;;;;;;;;;5110659;28;20048;-57
2023/04/28 09:12:40;;;;;;;3.20;1.57;;;;;;;;;;5107928;28;20035;-57
2023/04/28 09:15:08;;;;;;;2.83;1.50;;;;;;;;;;5107988;28;20106;-57
2023/04/28 09:17:53;;;;;;;1.53;1.10;;;;;;;;;;5107105;28;20547;-57
2023/04/28 09:20:23;;;;;;;3.55;1.42;;;;;;;;;;5110511;28;20047;-57
2023/04/28 09:22:50;;;;;;;1.73;1.20;;;;;;;;;;5113045;28;20507;-57
2023/04/28 09:25:20;;;;;;;1.90;1.40;;;;;;;;;;5112786;28;20030;-57
2023/04/28 09:27:46;;;;;;;1.73;1.30;;;;;;;;;;5112747;28;20525;-57
2023/04/28 09:30:13;;;;;;;3.87;1.57;;;;;;;;;;5112829;28;20028;-57
2023/04/28 09:32:40;;;;;;;2.97;1.57;;;;;;;;;;5109706;28;20076;-57
2023/04/28 09:35:08;;;;;;;2.53;1.33;;;;;;;;;;5107393;28;20047;-57
2023/04/28 09:37:36;;;;;;;0.70;0.50;;;;;;;;;;5107696;28;20027;-57
2023/04/28 09:40:06;;;;;;;2.53;1.47;;;;;;;;;;5107490;28;20039;-57
2023/04/28 09:42:34;;;;;;;11.77;1.73;;;;;;;;;;5109954;28;20024;-57
2023/04/28 09:45:04;;;;;;;1.50;1.20;;;;;;;;;;5112597;28;20024;-57
2023/04/28 09:47:33;;;;;;;1.03;0.87;;;;;;;;;;5112722;28;20498;-57
2023/04/28 09:50:01;;;;;;;12.23;1.80;;;;;;;;;;5112099;28;20529;-57
2023/04/28 09:52:28;;;;;;;1.57;1.30;;;;;;;;;;5112744;28;20092;-57
2023/04/28 09:54:55;;;;;;;2.53;1.67;;;;;;;;;;5109832;28;20020;-57
2023/04/28 09:57:22;;;;;;;2.87;2.00;;;;;;;;;;5107306;28;20505;-57
2023/04/28 09:59:53;;;;;;;1.30;1.03;;;;;;;;;;5107462;28;20351;-58
2023/04/28 10:02:20;;;;;;;2.93;1.40;;;;;;;;;;5107250;28;20525;-57
2023/04/28 10:04:50;;;;;;;4.33;2.30;;;;;;;;;;5109828;28;20032;-57
2023/04/28 10:07:20;;;;;;;2.07;1.50;;;;;;;;;;5112194;28;20048;-57
2023/04/28 10:09:49;;;;;;;3.03;1.77;;;;;;;;;;5112339;28;20106;-57
2023/04/28 10:12:18;;;;;;;2.40;1.77;;;;;;;;;;5112546;28;20039;-57
2023/04/28 10:14:46;;;;;;;2.73;2.00;;;;;;;;;;5112171;28;20413;-57
2023/04/28 10:17:17;;;;;;;2.80;2.03;;;;;;;;;;5109517;28;20073;-57
2023/04/28 10:19:44;;;;;;;1.63;1.23;;;;;;;;;;5106977;28;20027;-57
2023/04/28 10:22:31;;;;;;;3.60;2.27;;;;;;;;;;5107320;28;20055;-57
2023/04/28 10:24:58;;;;;;;3.50;2.17;;;;;;;;;;5107183;28;20383;-57
2023/04/28 10:27:30;;;;;;;12.47;2.60;;;;;;;;;;5110007;28;20020;-57
2023/04/28 10:30:12;;;;;;;3.67;2.53;;;;;;;;;;5114315;28;20058;-57
2023/04/28 10:32:39;;;;;;;3.03;1.63;;;;;;;;;;5115936;28;20019;-58
2023/04/28 10:35:23;;;;;;;6.03;3.63;;;;;;;;;;5115899;28;20112;-57
2023/04/28 10:38:08;;;;;;;4.00;2.57;;;;;;;;;;5115911;28;20370;-57
2023/04/28 10:40:37;;;;;;;1.83;1.40;;;;;;;;;;5110550;28;20028;-57
2023/04/28 10:43:04;;;;;;;6.27;2.23;;;;;;;;;;5110787;28;20023;-57
2023/04/28 10:45:50;;;;;;;3.63;2.40;;;;;;;;;;5110589;28;20034;-57
2023/04/28 10:48:16;;;;;;;;;;;;;;;;;;5110551;28;20032;-57
2023/04/28 10:51:18;;;;;;;3.30;2.43;;;;;;;;;;5115774;28;19910;-58
2023/04/28 10:53:45;;;;;;;3.47;2.47;;;;;;;;;;5115720;28;20073;-57
2023/04/28 10:56:13;;;;;;;4.67;3.13;;;;;;;;;;5115649;28;20604;-57
2023/04/28 10:58:41;;;;;;;4.07;2.37;;;;;;;;;;5115537;28;20016;-57
2023/04/28 11:01:20;;;;;;;4.87;2.70;;;;;;;;;;5114109;28;20165;-57
2023/04/28 11:03:52;;;;;;;8.20;3.43;;;;;;;;;;5110161;28;20038;-57
2023/04/28 11:06:25;;;;;;;6.80;3.03;;;;;;;;;;5110077;28;20047;-57
2023/04/28 11:08:54;;;;;;;2.80;1.93;;;;;;;;;;5109737;28;20522;-57
2023/04/28 11:11:24;;;;;;;4.30;2.57;;;;;;;;;;5111681;28;20272;-57
2023/04/28 11:13:51;;;;;;;3.73;2.87;;;;;;;;;;5115234;28;20084;-56
2023/04/28 11:16:22;;;;;;;5.87;3.17;;;;;;;;;;5115312;28;20034;-57
2023/04/28 11:19:02;;;;;;;3.13;2.67;;;;;;;;;;5115151;28;20019;-57
2023/04/28 11:21:29;;;;;;;2.87;1.97;;;;;;;;;;5115256;28;20416;-58
2023/04/28 11:23:57;;;;;;;4.50;2.80;;;;;;;;;;5112279;28;20016;-57
2023/04/28 11:26:24;;;;;;;6.63;3.73;;;;;;;;;;5110197;28;20027;-57
2023/04/28 11:28:55;;;;;;;6.17;3.40;;;;;;;;;;5109875;28;20038;-57
2023/04/28 11:31:23;;;;;;;3.70;2.23;;;;;;;;;;5110029;28;20464;-57
2023/04/28 11:33:52;;;;;;;2.63;1.77;;;;;;;;;;5111839;28;20024;-57
2023/04/28 11:36:26;;;;;;;4.10;2.77;;;;;;;;;;5114408;28;20402;-57
2023/04/28 11:38:55;;;;;;;3.53;2.40;;;;;;;;;;5114823;28;20027;-56
2023/04/28 11:41:22;;;;;;;6.30;3.53;;;;;;;;;;5113230;28;20110;-57
2023/04/28 11:43:48;;;;;;;5.90;3.63;;;;;;;;;;5114700;28;20251;-57
2023/04/28 11:46:25;;;;;;;7.13;3.13;;;;;;;;;;5112202;28;20595;-57
2023/04/28 11:49:02;;;;;;;2.63;1.83;;;;;;;;;;5109225;28;20030;-57
2023/04/28 11:51:31;;;;;;;5.87;3.07;;;;;;;;;;5109458;28;20260;-57
2023/04/28 11:53:58;;;;;;;4.57;3.23;;;;;;;;;;5109510;28;20459;-57
2023/04/28 11:56:25;;;;;;;2.13;1.60;;;;;;;;;;5111982;28;20031;-57
2023/04/28 11:59:09;;;;;;;5.63;4.07;;;;;;;;;;5113867;28;20492;-58
2023/04/28 12:01:49;;;;;;;3.33;2.37;;;;;;;;;;5113887;28;20826;-57
2023/04/28 12:04:28;;;;;;;4.90;2.57;;;;;;;;;;5113992;28;20256;-58
2023/04/28 12:07:13;;;;;;;3.47;2.60;;;;;;;;;;5114040;28;20252;-57
2023/04/28 12:09:42;;;;;;;5.32;3.13;;;;;;;;;;5108793;28;20270;-57
2023/04/28 12:12:10;;;;;;;6.33;3.00;;;;;;;;;;5109009;28;20382;-57
2023/04/28 12:14:55;;;;;;;4.57;3.17;;;;;;;;;;5108719;28;20341;-57
2023/04/28 12:17:29;;;;;;;5.20;3.30;;;;;;;;;;5108575;28;20256;-57
2023/04/28 12:19:57;;;;;;;8.10;3.57;;;;;;;;;;5113779;28;20579;-57
2023/04/28 12:22:24;;;;;;;4.23;2.63;;;;;;;;;;5113806;28;20124;-57
2023/04/28 12:25:07;;;;;;;9.83;3.83;;;;;;;;;;5113691;28;20339;-57
2023/04/28 12:27:35;;;;;;;8.70;3.30;;;;;;;;;;5113367;28;20291;-56
2023/04/28 12:30:02;;;;;;;6.37;3.17;;;;;;;;;;5112265;28;20261;-57
2023/04/28 12:32:38;;;;;;;7.70;4.43;;;;;;;;;;5108232;28;20256;-57
2023/04/28 12:35:05;;;;;;;4.77;3.67;;;;;;;;;;5108441;28;20320;-56
2023/04/28 12:37:32;;;;;;;4.30;3.03;;;;;;;;;;5108330;28;20347;-57
2023/04/28 12:39:59;;;;;;;4.47;2.90;;;;;;;;;;5109055;28;20267;-57
2023/04/28 12:42:26;;;;;;;9.70;4.83;;;;;;;;;;5113444;28;20282;-57
2023/04/28 12:44:52;;;;;;;15.83;4.33;;;;;;;;;;5113015;28;20268;-57
2023/04/28 12:47:20;;;;;;;8.77;3.50;;;;;;;;;;5113183;28;20257;-56
2023/04/28 12:49:49;;;;;;;8.47;4.83;;;;;;;;;;5113092;28;20750;-57
2023/04/28 12:52:16;;;;;;;4.27;3.53;;;;;;;;;;5111809;28;20313;-58
2023/04/28 12:54:45;;;;;;;4.77;3.47;;;;;;;;;;5107987;28;20260;-57
2023/04/28 12:57:16;;;;;;;11.53;3.67;;;;;;;;;;5107951;28;20024;-57
2023/04/28 12:59:43;;;;;;;11.13;4.90;;;;;;;;;;5107402;28;20286;-57
2023/04/28 13:02:10;;;;;;;20.37;4.83;;;;;;;;;;5108379;28;20259;-56
2023/04/28 13:04:37;;;;;;;5.27;3.83;;;;;;;;;;5113063;28;20260;-56
2023/04/28 13:07:06;;;;;;;8.57;4.20;;;;;;;;;;5112900;28;20016;-57
2023/04/28 13:09:32;;;;;;;10.80;4.47;;;;;;;;;;5112822;28;20113;-57
2023/04/28 13:11:59;;;;;;;10.73;4.37;;;;;;;;;;5113008;28;20028;-57
2023/04/28 13:14:27;;;;;;;10.80;5.77;;;;;;;;;;5111648;28;20023;-57
2023/04/28 13:16:54;;;;;;;9.87;5.60;;;;;;;;;;5107855;28;20058;-57
2023/04/28 13:19:21;;;;;;;8.40;5.83;;;;;;;;;;5107746;28;20660;-57
2023/04/28 13:21:47;;;;;;;7.57;5.30;;;;;;;;;;5107645;28;20042;-57
2023/04/28 13:24:14;;;;;;;4.33;3.40;;;;;;;;;;5107539;28;20085;-57
2023/04/28 13:26:43;;;;;;;22.17;5.57;;;;;;;;;;5112760;28;20412;-57
2023/04/28 13:29:10;;;;;;;13.97;6.53;;;;;;;;;;5112734;28;20115;-57
2023/04/28 13:31:36;;;;;;;6.40;4.57;;;;;;;;;;5112339;28;20027;-58
2023/04/28 13:34:04;;;;;;;9.07;5.77;;;;;;;;;;5112704;28;20020;-57
2023/04/28 13:36:32;;;;;;;16.00;5.83;;;;;;;;;;5112310;28;20023;-58
2023/04/28 13:38:58;;;;;;;13.80;5.87;;;;;;;;;;5107468;28;20024;-58
2023/04/28 13:41:25;;;;;;;11.47;4.93;;;;;;;;;;5107492;28;20047;-58
2023/04/28 13:43:52;;;;;;;11.60;4.23;;;;;;;;;;5107265;28;20059;-57
2023/04/28 13:46:19;;;;;;;8.00;4.67;;;;;;;;;;5107487;28;20430;-57
2023/04/28 13:48:46;;;;;;;6.90;4.40;;;;;;;;;;5111841;28;20505;-57
2023/04/28 13:51:13;;;;;;;8.53;4.97;;;;;;;;;;5112585;28;20024;-57
2023/04/28 13:53:40;;;;;;;7.67;5.97;;;;;;;;;;5112638;28;20024;-57
2023/04/28 13:56:07;;;;;;;8.10;5.80;;;;;;;;;;5112486;28;20024;-57
2023/04/28 13:58:34;;;;;;;17.67;8.07;;;;;;;;;;5112235;28;20027;-57
2023/04/28 14:01:02;;;;;;;12.40;6.73;;;;;;;;;;5107259;28;20031;-57
2023/04/28 14:03:29;;;;;;;17.13;7.13;;;;;;;;;;5107161;28;20072;-57
2023/04/28 14:05:56;;;;;;;15.40;7.67;;;;;;;;;;5110864;28;20027;-58
2023/04/28 14:08:24;;;;;;;14.43;7.20;;;;;;;;;;5111078;28;20035;-58
2023/04/28 14:10:51;;;;;;;21.93;8.03;;;;;;;;;;5115769;28;20038;-57
2023/04/28 14:13:18;;;;;;;14.80;8.37;;;;;;;;;;5116311;28;20467;-57
2023/04/28 14:15:45;;;;;;;16.03;6.67;;;;;;;;;;5116181;28;20024;-58
2023/04/28 14:18:13;;;;;;;21.33;7.83;;;;;;;;;;5116249;28;20055;-57
2023/04/28 14:20:40;;;;;;;11.53;8.03;;;;;;;;;;5115532;28;20482;-58
2023/04/28 14:23:07;;;;;;;20.40;9.03;;;;;;;;;;5111209;28;20420;-58
2023/04/28 14:25:34;;;;;;;19.37;8.57;;;;;;;;;;5111033;28;20068;-58
2023/04/28 14:28:01;;;;;;;15.40;8.27;;;;;;;;;;5110862;28;20027;-58
2023/04/28 14:30:28;;;;;;;14.07;6.90;;;;;;;;;;5110780;28;20351;-58
2023/04/28 14:32:54;;;;;;;27.13;8.77;;;;;;;;;;5114543;28;20502;-58
2023/04/28 14:35:21;;;;;;;15.27;7.80;;;;;;;;;;5116083;28;20023;-58
2023/04/28 14:37:48;;;;;;;10.80;5.93;;;;;;;;;;5115326;28;20068;-58
2023/04/28 14:40:15;;;;;;;12.90;6.17;;;;;;;;;;5115852;28;20051;-58
2023/04/28 14:42:43;;;;;;;8.37;5.47;;;;;;;;;;5115766;28;20026;-58
2023/04/28 14:45:10;;;;;;;11.07;7.13;;;;;;;;;;5111308;28;20091;-58